Hlavní strana
METAR-TAF:

METAR-TAF

Letiště :

Illizi, Alžírsko

zeměpisná šířka: 26-30N, zeměpisná délka: 008-25E, výška: 558 m

Aktuální stav počasí

Zpráva byla vytvořena před 28 minutami, v 12:00 UTC
Západoseverozápadní vítr 11 kt
Teplota 42°C
Tlak 1010 hPa
Viditelnost: 5000 m

METAR: DAAP 041200Z 29011KT 5000 NSC 42/// Q1010

Čas: 13:28 (12:28 UTC)

Předpověď počasí

Zpráva byla vytvořena před 1 hodinou a 28 minutami, v 11:00 UTC
Předpověď platná od 04 v 12 UTC do 04 v 21 UTC
Západoseverozápadní vítr 10 kt
Viditelnost: 6000 m
Pravděpodobnost 40% :
Dočasný
od 04 v 12 UTC do 04 v 16 UTC
Viditelnost: 4000 m
zákal

TAF: DAAP 041100Z 0412/0421 30010KT 6000 NSC PROB40 TEMPO 0412/0416 4000 HZ

Stav a předpovědi počasí z více než 4 000 letišť (zprávy METAR a TAF).

Červené a žluté tečky na mapě představují dostupné meteorologické stanice.

Když kurzor umístíte na tečku, zobrazí se název stanice.

Pak kliknutím zobrazíte stav a předpověď počasí.

Chcete-li změnit mapu, kliknutím na zelené tlačítko se znaménkem +mapu přiblížíte, kliknutím na zelené tlačítko se znaménkem – mapu oddálíte a kliknutím na zelené šipky přejdete na sousední mapy.


METAR-TAF: